createdAt,value
2018-04-15T00:02:23.479Z,4.37
2018-04-15T00:04:51.040Z,4.93
2018-04-15T00:07:19.291Z,4.07
2018-04-15T00:09:46.799Z,7.27
2018-04-15T00:12:15.164Z,6.93
2018-04-15T00:14:42.731Z,4.20
2018-04-15T00:17:10.235Z,4.07
2018-04-15T00:19:37.761Z,4.60
2018-04-15T00:22:05.274Z,4.60
2018-04-15T00:24:32.798Z,5.00
2018-04-15T00:27:00.306Z,3.60
2018-04-15T00:29:27.814Z,3.93
2018-04-15T00:31:55.297Z,4.00
2018-04-15T00:34:22.847Z,4.23
2018-04-15T00:36:50.346Z,3.90
2018-04-15T00:39:18.700Z,3.50
2018-04-15T00:41:46.276Z,3.67
2018-04-15T00:44:13.783Z,3.90
2018-04-15T00:46:41.398Z,6.43
2018-04-15T00:49:08.963Z,3.67
2018-04-15T00:51:36.524Z,3.73
2018-04-15T00:54:15.851Z,4.20
2018-04-15T00:56:44.108Z,3.70
2018-04-15T00:59:11.615Z,5.30
2018-04-15T01:01:39.114Z,3.23
2018-04-15T01:04:06.691Z,3.60
2018-04-15T01:06:34.188Z,3.87
2018-04-15T01:09:01.763Z,3.70
2018-04-15T01:11:29.338Z,4.83
2018-04-15T01:13:56.902Z,5.23
2018-04-15T01:16:24.419Z,4.33
2018-04-15T01:18:51.924Z,3.50
2018-04-15T01:21:20.206Z,4.03
2018-04-15T01:23:47.771Z,3.53
2018-04-15T01:26:15.292Z,4.17
2018-04-15T01:28:42.791Z,3.07
2018-04-15T01:31:10.370Z,3.47
2018-04-15T01:33:37.867Z,3.60
2018-04-15T01:36:06.130Z,3.20
2018-04-15T01:38:33.641Z,3.90
2018-04-15T01:41:01.197Z,3.50
2018-04-15T01:43:28.690Z,3.33
2018-04-15T01:45:56.179Z,3.10
2018-04-15T01:48:23.786Z,3.27
2018-04-15T01:50:51.316Z,4.97
2018-04-15T01:53:18.867Z,4.40
2018-04-15T01:55:46.374Z,4.20
2018-04-15T01:58:13.853Z,3.53
2018-04-15T02:00:41.466Z,3.33
2018-04-15T02:03:08.957Z,5.07
2018-04-15T02:05:37.305Z,3.40
2018-04-15T02:08:04.795Z,3.20
2018-04-15T02:10:33.159Z,3.43
2018-04-15T02:13:00.671Z,3.00
2018-04-15T02:15:28.196Z,3.60
2018-04-15T02:17:55.750Z,3.30
2018-04-15T02:20:23.246Z,2.90
2018-04-15T02:22:51.610Z,3.23
2018-04-15T02:25:19.168Z,3.73
2018-04-15T02:27:46.664Z,3.53
2018-04-15T02:30:14.918Z,4.40
2018-04-15T02:32:42.491Z,4.67
2018-04-15T02:35:10.049Z,3.33
2018-04-15T02:37:37.659Z,2.77
2018-04-15T02:40:05.145Z,2.97
2018-04-15T02:42:32.632Z,2.90
2018-04-15T02:45:00.216Z,3.10
2018-04-15T02:47:27.731Z,2.20
2018-04-15T02:49:55.221Z,3.23
2018-04-15T02:52:22.789Z,2.90
2018-04-15T02:54:50.282Z,3.00
2018-04-15T02:57:18.529Z,2.93
2018-04-15T02:59:46.111Z,3.60
2018-04-15T03:02:13.677Z,3.07
2018-04-15T03:04:41.941Z,2.80
2018-04-15T03:07:09.525Z,3.87
2018-04-15T03:09:37.789Z,3.13
2018-04-15T03:12:05.296Z,2.77
2018-04-15T03:14:33.572Z,3.33
2018-04-15T03:17:01.844Z,2.47
2018-04-15T03:19:29.399Z,4.63
2018-04-15T03:21:56.896Z,2.43
2018-04-15T03:24:25.205Z,7.13
2018-04-15T03:26:52.709Z,2.43
2018-04-15T03:29:20.226Z,3.30
2018-04-15T03:31:47.725Z,2.90
2018-04-15T03:34:15.249Z,3.07
2018-04-15T03:36:42.739Z,2.80
2018-04-15T03:39:10.253Z,2.60
2018-04-15T03:41:37.751Z,2.60
2018-04-15T03:44:05.231Z,2.83
2018-04-15T03:46:32.731Z,3.60
2018-04-15T03:49:00.221Z,3.33
2018-04-15T03:51:28.501Z,25.97
2018-04-15T03:53:56.750Z,17.87
2018-04-15T03:56:24.241Z,18.67
2018-04-15T03:58:52.544Z,11.67
2018-04-15T04:01:20.036Z,14.20
2018-04-15T04:03:47.543Z,12.70
2018-04-15T04:06:15.059Z,15.50
2018-04-15T04:08:42.557Z,15.73
2018-04-15T04:11:10.055Z,12.40
2018-04-15T04:13:38.316Z,12.30
2018-04-15T04:16:05.872Z,11.23
2018-04-15T04:18:45.128Z,10.73
2018-04-15T04:21:25.355Z,14.40
2018-04-15T04:24:19.624Z,13.83
2018-04-15T04:26:47.137Z,9.70
2018-04-15T04:29:14.635Z,6.37
2018-04-15T04:31:42.125Z,12.03
2018-04-15T04:34:09.604Z,6.93
2018-04-15T04:36:37.879Z,8.17
2018-04-15T04:39:06.192Z,10.07
2018-04-15T04:41:33.721Z,6.40
2018-04-15T04:44:01.226Z,9.60
2018-04-15T04:46:28.713Z,6.40
2018-04-15T04:48:56.217Z,8.93
2018-04-15T04:51:23.726Z,8.17
2018-04-15T04:53:51.229Z,9.87
2018-04-15T04:56:18.805Z,7.07
2018-04-15T04:58:47.053Z,6.63
2018-04-15T05:01:14.651Z,5.80
2018-04-15T05:03:42.160Z,6.67
2018-04-15T05:06:09.646Z,7.60
2018-04-15T05:08:37.239Z,6.37
2018-04-15T05:11:04.816Z,7.33
2018-04-15T05:13:32.350Z,6.20
2018-04-15T05:15:59.862Z,6.03
2018-04-15T05:18:28.222Z,6.07
2018-04-15T05:20:55.718Z,4.83
2018-04-15T05:23:23.971Z,4.03
2018-04-15T05:25:51.547Z,5.30
2018-04-15T05:28:19.826Z,4.03
2018-04-15T05:30:47.317Z,4.40
2018-04-15T05:33:14.844Z,3.80
2018-04-15T05:35:42.352Z,6.07
2018-04-15T05:38:10.607Z,8.20
2018-04-15T05:40:38.131Z,6.43
2018-04-15T05:43:05.620Z,5.40
2018-04-15T05:45:33.149Z,5.07
2018-04-15T05:48:00.957Z,3.13
2018-04-15T05:50:28.447Z,4.07
2018-04-15T05:52:56.713Z,3.60
2018-04-15T05:55:24.208Z,6.13
2018-04-15T05:57:51.707Z,4.57
2018-04-15T06:00:19.197Z,3.33
2018-04-15T06:02:46.754Z,4.20
2018-04-15T06:05:14.390Z,3.13
2018-04-15T06:07:42.611Z,16.77
2018-04-15T06:10:10.107Z,3.27
2018-04-15T06:12:38.378Z,2.70
2018-04-15T06:15:06.647Z,4.93
2018-04-15T06:17:34.205Z,5.27
2018-04-15T06:20:01.705Z,4.40
2018-04-15T06:22:29.953Z,4.40
2018-04-15T06:24:57.444Z,5.70
2018-04-15T06:27:24.934Z,4.33
2018-04-15T06:29:52.432Z,5.47
2018-04-15T06:32:20.001Z,5.13
2018-04-15T06:34:47.505Z,3.77
2018-04-15T06:37:14.997Z,5.63
2018-04-15T06:39:42.545Z,6.00
2018-04-15T06:42:10.480Z,6.47
2018-04-15T06:44:38.042Z,3.23
2018-04-15T06:47:05.528Z,3.53
2018-04-15T06:49:33.885Z,5.13
2018-04-15T06:52:01.381Z,3.70
2018-04-15T06:54:29.642Z,3.17
2018-04-15T06:56:57.158Z,2.67
2018-04-15T06:59:24.655Z,2.50
2018-04-15T07:01:52.906Z,2.93
2018-04-15T07:04:20.380Z,2.17
2018-04-15T07:06:47.899Z,3.80
2018-04-15T07:09:16.169Z,3.30
2018-04-15T07:11:43.721Z,2.57
2018-04-15T07:14:11.237Z,2.70
2018-04-15T07:16:38.734Z,3.17
2018-04-15T07:19:06.311Z,2.47
2018-04-15T07:21:33.818Z,2.70
2018-04-15T07:24:01.329Z,2.53
2018-04-15T07:26:28.826Z,2.53
2018-04-15T07:28:57.086Z,2.20
2018-04-15T07:31:24.589Z,2.63
2018-04-15T07:33:52.092Z,2.70
2018-04-15T07:36:19.587Z,2.03
2018-04-15T07:38:47.095Z,2.60
2018-04-15T07:41:14.592Z,2.47
2018-04-15T07:43:42.871Z,2.47
2018-04-15T07:46:10.369Z,2.30
2018-04-15T07:48:37.917Z,2.67
2018-04-15T07:51:05.404Z,2.67
2018-04-15T07:53:33.681Z,2.43
2018-04-15T07:56:01.193Z,2.30
2018-04-15T07:58:28.694Z,2.60
2018-04-15T08:00:56.204Z,2.17
2018-04-15T08:03:23.725Z,2.33
2018-04-15T08:05:51.306Z,2.07
2018-04-15T08:08:19.595Z,2.63
2018-04-15T08:10:47.840Z,2.50
2018-04-15T08:13:15.456Z,4.87
2018-04-15T08:15:43.738Z,5.63
2018-04-15T08:18:11.990Z,3.47
2018-04-15T08:20:39.508Z,3.77
2018-04-15T08:23:07.025Z,3.50
2018-04-15T08:25:34.553Z,19.83
2018-04-15T08:28:02.060Z,11.33
2018-04-15T08:30:29.554Z,3.33
2018-04-15T08:32:57.073Z,2.53
2018-04-15T08:35:24.560Z,4.77
2018-04-15T08:37:52.828Z,4.77
2018-04-15T08:40:20.336Z,6.33
2018-04-15T08:42:47.862Z,9.27
2018-04-15T08:45:16.154Z,6.40
2018-04-15T08:47:44.517Z,3.87
2018-04-15T08:50:12.014Z,5.37
2018-04-15T08:52:39.511Z,6.37
2018-04-15T08:55:07.002Z,7.73
2018-04-15T08:57:34.545Z,5.03
2018-04-15T09:00:02.046Z,5.60
2018-04-15T09:02:29.536Z,11.63
2018-04-15T09:04:57.062Z,15.20
2018-04-15T09:07:24.556Z,8.63
2018-04-15T09:09:52.841Z,16.97
2018-04-15T09:12:21.221Z,17.73
2018-04-15T09:14:49.474Z,9.43
2018-04-15T09:17:16.975Z,6.37
2018-04-15T09:19:44.469Z,8.17
2018-04-15T09:22:11.987Z,6.03
2018-04-15T09:24:40.250Z,13.13
2018-04-15T09:27:07.749Z,11.33
2018-04-15T09:29:35.245Z,5.63
2018-04-15T09:32:02.849Z,5.80
2018-04-15T09:34:30.409Z,5.13
2018-04-15T09:36:57.916Z,10.37
2018-04-15T09:39:25.480Z,4.27
2018-04-15T09:41:52.947Z,13.37
2018-04-15T09:44:20.436Z,7.97
2018-04-15T09:46:47.942Z,9.13
2018-04-15T09:49:15.436Z,8.03
2018-04-15T09:51:42.950Z,8.67
2018-04-15T09:54:10.445Z,15.43
2018-04-15T09:56:38.853Z,13.17
2018-04-15T09:59:06.347Z,9.43
2018-04-15T10:01:33.897Z,9.97
2018-04-15T10:04:01.395Z,10.87
2018-04-15T10:06:28.899Z,16.03
2018-04-15T10:08:57.260Z,7.63
2018-04-15T10:11:24.751Z,7.83
2018-04-15T10:13:52.249Z,9.40
2018-04-15T10:16:19.759Z,6.00
2018-04-15T10:18:49.924Z,8.17
2018-04-15T10:21:17.427Z,17.67
2018-04-15T10:23:44.933Z,10.70
2018-04-15T10:26:13.200Z,10.47
2018-04-15T10:28:41.486Z,9.87
2018-04-15T10:31:09.749Z,12.17
2018-04-15T10:33:37.247Z,13.60
2018-04-15T10:36:04.752Z,10.30
2018-04-15T10:38:32.250Z,11.70
2018-04-15T10:40:59.783Z,11.50
2018-04-15T10:43:27.276Z,15.63
2018-04-15T10:45:54.792Z,8.97
2018-04-15T10:48:22.321Z,7.20
2018-04-15T10:50:49.780Z,7.57
2018-04-15T10:53:18.054Z,7.47
2018-04-15T10:55:45.565Z,9.43
2018-04-15T10:58:19.932Z,7.87
2018-04-15T11:00:47.438Z,3.30
2018-04-15T11:03:14.931Z,5.97
2018-04-15T11:05:42.427Z,4.33
2018-04-15T11:08:09.927Z,8.50
2018-04-15T11:10:37.436Z,9.93
2018-04-15T11:13:05.729Z,7.37
2018-04-15T11:15:33.233Z,8.93
2018-04-15T11:18:01.552Z,7.80
2018-04-15T11:20:29.062Z,6.07
2018-04-15T11:22:56.578Z,6.70
2018-04-15T11:25:24.071Z,4.40
2018-04-15T11:27:51.581Z,4.77
2018-04-15T11:30:19.072Z,4.40
2018-04-15T11:32:46.569Z,6.00
2018-04-15T11:35:14.086Z,3.77
2018-04-15T11:37:41.579Z,5.07
2018-04-15T11:40:09.853Z,6.13
2018-04-15T11:42:37.347Z,3.67
2018-04-15T11:45:04.853Z,6.87
2018-04-15T11:47:32.370Z,4.37
2018-04-15T11:49:59.878Z,4.53
2018-04-15T11:52:27.376Z,5.43
2018-04-15T11:54:54.881Z,5.43
2018-04-15T11:57:23.147Z,3.10
2018-04-15T11:59:50.652Z,5.50
2018-04-15T12:02:18.144Z,3.80
2018-04-15T12:04:45.621Z,3.57
2018-04-15T12:07:13.105Z,3.43
2018-04-15T12:09:40.590Z,4.47
2018-04-15T12:12:08.874Z,5.77
2018-04-15T12:14:37.121Z,3.07
2018-04-15T12:17:04.622Z,3.07
2018-04-15T12:19:32.894Z,4.77
2018-04-15T12:22:01.169Z,2.50
2018-04-15T12:24:28.691Z,2.63
2018-04-15T12:26:56.198Z,3.03
2018-04-15T12:29:23.690Z,3.03
2018-04-15T12:31:51.186Z,2.73
2018-04-15T12:34:18.775Z,3.37
2018-04-15T12:36:46.354Z,6.93
2018-04-15T12:39:13.844Z,2.43
2018-04-15T12:41:42.148Z,6.47
2018-04-15T12:44:09.649Z,6.20
2018-04-15T12:46:37.234Z,8.47
2018-04-15T12:49:04.777Z,8.80
2018-04-15T12:51:32.359Z,6.53
2018-04-15T12:53:59.867Z,18.43
2018-04-15T12:56:27.401Z,11.30
2018-04-15T12:58:55.647Z,5.57
2018-04-15T13:01:23.170Z,4.83
2018-04-15T13:03:50.672Z,3.27
2018-04-15T13:06:18.262Z,3.27
2018-04-15T13:08:45.829Z,3.20
2018-04-15T13:11:13.319Z,2.17
2018-04-15T13:13:41.619Z,7.20
2018-04-15T13:16:09.112Z,2.77
2018-04-15T13:18:36.601Z,3.93
2018-04-15T13:21:04.126Z,5.07
2018-04-15T13:23:31.620Z,8.13
2018-04-15T13:25:59.139Z,7.27
2018-04-15T13:28:26.629Z,8.20
2018-04-15T13:30:54.130Z,4.23
2018-04-15T13:33:21.641Z,23.00
2018-04-15T13:35:49.145Z,5.77
2018-04-15T13:38:17.434Z,11.67
2018-04-15T13:40:44.953Z,18.73
2018-04-15T13:43:12.459Z,21.07
2018-04-15T13:45:39.955Z,16.17
2018-04-15T13:48:08.217Z,24.33
2018-04-15T13:50:35.783Z,15.83
2018-04-15T13:53:03.279Z,15.50
2018-04-15T13:55:30.799Z,23.97
2018-04-15T13:57:58.301Z,62.83
2018-04-15T14:00:26.566Z,37.07
2018-04-15T14:02:54.085Z,13.40
2018-04-15T14:05:21.591Z,22.77
2018-04-15T14:07:49.159Z,14.30
2018-04-15T14:10:17.445Z,25.40
2018-04-15T14:12:45.706Z,41.23
2018-04-15T14:15:13.232Z,39.43
2018-04-15T14:17:40.740Z,32.37
2018-04-15T14:20:08.246Z,35.43
2018-04-15T14:22:35.752Z,35.77
2018-04-15T14:25:03.340Z,27.80
2018-04-15T14:27:30.863Z,31.70
2018-04-15T14:29:58.354Z,39.33
2018-04-15T14:32:25.861Z,39.50
2018-04-15T14:34:53.359Z,39.93
2018-04-15T14:37:20.859Z,30.73
2018-04-15T14:39:48.371Z,41.20
2018-04-15T14:42:15.901Z,48.50
2018-04-15T14:44:44.170Z,52.57
2018-04-15T14:47:11.667Z,41.17
2018-04-15T14:49:39.175Z,37.33
2018-04-15T14:52:06.685Z,42.90
2018-04-15T14:54:35.373Z,43.47
2018-04-15T14:57:03.668Z,33.90
2018-04-15T14:59:31.924Z,41.83
2018-04-15T15:01:59.484Z,55.93
2018-04-15T15:04:27.005Z,41.37
2018-04-15T15:06:54.498Z,44.00
2018-04-15T15:09:22.023Z,37.50
2018-04-15T15:11:49.527Z,38.33
2018-04-15T15:14:17.040Z,23.43
2018-04-15T15:16:44.553Z,26.27
2018-04-15T15:19:12.163Z,31.87
2018-04-15T15:21:40.447Z,34.13
2018-04-15T15:24:08.716Z,25.53
2018-04-15T15:26:37.119Z,28.40
2018-04-15T15:29:04.678Z,29.87
2018-04-15T15:31:32.938Z,32.23
2018-04-15T15:34:00.440Z,33.67
2018-04-15T15:36:27.930Z,24.63
2018-04-15T15:38:55.520Z,32.93
2018-04-15T15:41:23.045Z,31.60
2018-04-15T15:43:50.557Z,27.00
2018-04-15T15:46:18.162Z,23.50
2018-04-15T15:48:45.794Z,18.40
2018-04-15T15:51:13.487Z,24.33
2018-04-15T15:53:41.802Z,17.07
2018-04-15T15:56:09.301Z,22.37
2018-04-15T15:58:36.870Z,22.13
2018-04-15T16:01:04.380Z,21.23
2018-04-15T16:03:31.937Z,21.33
2018-04-15T16:05:59.467Z,19.33
2018-04-15T16:08:26.978Z,14.90
2018-04-15T16:10:54.501Z,15.83
2018-04-15T16:13:22.008Z,16.80
2018-04-15T16:15:49.520Z,10.60
2018-04-15T16:18:17.062Z,15.23
2018-04-15T16:20:44.552Z,13.60
2018-04-15T16:23:12.063Z,12.70
2018-04-15T16:25:39.575Z,16.67
2018-04-15T16:28:07.073Z,10.53
2018-04-15T16:30:35.348Z,9.37
2018-04-15T16:33:03.621Z,6.87
2018-04-15T16:35:31.880Z,3.23
2018-04-15T16:37:59.467Z,10.93
2018-04-15T16:40:26.966Z,8.80
2018-04-15T16:42:54.528Z,16.07
2018-04-15T16:45:22.027Z,15.00
2018-04-15T16:47:49.553Z,11.70
2018-04-15T16:50:17.797Z,7.33
2018-04-15T16:52:45.322Z,8.30
2018-04-15T16:55:12.939Z,8.43
2018-04-15T16:57:40.421Z,6.73
2018-04-15T17:00:08.771Z,9.43
2018-04-15T17:02:37.071Z,8.63
2018-04-15T17:05:04.646Z,9.33
2018-04-15T17:07:32.934Z,10.10
2018-04-15T17:10:01.291Z,11.20
2018-04-15T17:12:28.868Z,8.50
2018-04-15T17:14:56.388Z,10.10
2018-04-15T17:17:23.983Z,8.00
2018-04-15T17:19:51.488Z,9.03
2018-04-15T17:22:18.999Z,9.47
2018-04-15T17:24:46.604Z,10.73
2018-04-15T17:27:14.979Z,7.90
2018-04-15T17:29:42.476Z,8.17
2018-04-15T17:32:10.015Z,5.27
2018-04-15T17:34:37.508Z,17.73
2018-04-15T17:37:05.021Z,9.53
2018-04-15T17:39:32.523Z,6.90
2018-04-15T17:42:00.815Z,9.30
2018-04-15T17:44:28.315Z,6.43
2018-04-15T17:46:55.835Z,7.23
2018-04-15T17:49:24.104Z,9.70
2018-04-15T17:51:52.380Z,6.33
2018-04-15T17:54:20.659Z,7.87
2018-04-15T17:56:48.940Z,4.13
2018-04-15T17:59:16.446Z,6.73
2018-04-15T18:01:43.938Z,6.53
2018-04-15T18:04:11.445Z,10.17
2018-04-15T18:06:39.746Z,5.07
2018-04-15T18:09:07.279Z,7.90
2018-04-15T18:11:34.819Z,6.33
2018-04-15T18:14:02.394Z,10.20
2018-04-15T18:16:29.918Z,8.50
2018-04-15T18:18:57.439Z,9.47
2018-04-15T18:21:25.721Z,7.80
2018-04-15T18:23:53.249Z,8.10
2018-04-15T18:26:20.757Z,20.03
2018-04-15T18:28:49.049Z,39.70
2018-04-15T18:31:17.318Z,48.13
2018-04-15T18:33:44.865Z,42.83
2018-04-15T18:36:12.398Z,44.83
2018-04-15T18:38:39.917Z,46.40
2018-04-15T18:41:08.275Z,49.87
2018-04-15T18:43:35.910Z,44.90
2018-04-15T18:46:04.257Z,49.13
2018-04-15T18:48:32.581Z,48.80
2018-04-15T18:51:00.241Z,46.17
2018-04-15T18:53:27.800Z,46.03
2018-04-15T18:55:55.477Z,41.97
2018-04-15T18:58:23.182Z,39.50
2018-04-15T19:00:50.924Z,43.53
2018-04-15T19:03:18.617Z,50.67
2018-04-15T19:05:46.401Z,47.20
2018-04-15T19:08:14.152Z,49.50
2018-04-15T19:10:42.592Z,49.43
2018-04-15T19:13:10.282Z,51.10
2018-04-15T19:15:37.990Z,68.50
2018-04-15T19:18:05.664Z,123.83
2018-04-15T19:20:33.389Z,219.23
2018-04-15T19:23:01.038Z,183.03
2018-04-15T19:25:28.893Z,184.63
2018-04-15T19:27:57.342Z,194.53
2018-04-15T19:30:25.213Z,174.87
2018-04-15T19:32:52.883Z,154.90
2018-04-15T19:35:20.514Z,145.77
2018-04-15T19:37:48.135Z,144.50
2018-04-15T19:40:15.797Z,128.83
2018-04-15T19:42:43.472Z,126.97
2018-04-15T19:45:11.082Z,120.97
2018-04-15T19:47:38.991Z,129.07
2018-04-15T19:50:07.936Z,124.30
2018-04-15T19:52:35.625Z,119.33
2018-04-15T19:55:03.250Z,102.83
2018-04-15T19:57:31.063Z,106.13
2018-04-15T19:59:58.717Z,111.77
2018-04-15T20:02:26.292Z,95.63
2018-04-15T20:04:53.887Z,93.37
2018-04-15T20:07:21.395Z,93.77
2018-04-15T20:09:49.765Z,85.80
2018-04-15T20:12:17.368Z,86.93
2018-04-15T20:14:45.043Z,79.83
2018-04-15T20:17:12.681Z,85.20
2018-04-15T20:19:41.019Z,75.83
2018-04-15T20:22:08.521Z,74.37
2018-04-15T20:24:36.078Z,79.60
2018-04-15T20:27:03.684Z,79.13
2018-04-15T20:29:31.225Z,70.80
2018-04-15T20:31:59.503Z,63.63
2018-04-15T20:34:27.023Z,67.20
2018-04-15T20:36:54.570Z,69.07
2018-04-15T20:39:22.075Z,66.70
2018-04-15T20:41:49.595Z,60.60
2018-04-15T20:44:18.501Z,61.23
2018-04-15T20:46:46.005Z,56.63
2018-04-15T20:49:13.538Z,54.57
2018-04-15T20:51:41.103Z,55.30
2018-04-15T20:54:08.645Z,58.03
2018-04-15T20:56:36.178Z,57.53
2018-04-15T20:59:03.687Z,54.37
2018-04-15T21:01:31.267Z,52.73
2018-04-15T21:03:58.770Z,59.10
2018-04-15T21:06:27.049Z,51.47
2018-04-15T21:08:54.604Z,51.23
2018-04-15T21:11:22.185Z,43.77
2018-04-15T21:13:49.743Z,47.33
2018-04-15T21:16:17.254Z,43.90
2018-04-15T21:18:44.774Z,44.83
2018-04-15T21:21:12.323Z,46.47
2018-04-15T21:23:39.822Z,42.43
2018-04-15T21:26:08.192Z,46.63
2018-04-15T21:28:36.481Z,39.37
2018-04-15T21:31:03.976Z,43.50
2018-04-15T21:33:31.486Z,35.70
2018-04-15T21:35:59.088Z,43.97
2018-04-15T21:38:27.533Z,36.57
2018-04-15T21:40:55.094Z,45.50
2018-04-15T21:43:22.684Z,43.93
2018-04-15T21:45:50.258Z,35.03
2018-04-15T21:48:17.754Z,39.43
2018-04-15T21:50:45.273Z,36.63
2018-04-15T21:53:12.782Z,38.77
2018-04-15T21:55:40.283Z,35.67
2018-04-15T21:58:07.784Z,35.23
2018-04-15T22:00:36.165Z,38.03
2018-04-15T22:03:03.685Z,33.30
2018-04-15T22:05:31.191Z,30.00
2018-04-15T22:07:58.703Z,28.97
2018-04-15T22:10:26.314Z,29.63
2018-04-15T22:13:08.717Z,30.30
2018-04-15T22:15:36.267Z,26.13
2018-04-15T22:18:03.854Z,40.73
2018-04-15T22:20:31.417Z,25.37
2018-04-15T22:22:58.920Z,29.60
2018-04-15T22:25:26.412Z,37.57
2018-04-15T22:27:53.999Z,33.00
2018-04-15T22:30:21.493Z,21.37
2018-04-15T22:32:49.866Z,24.90
2018-04-15T22:35:17.378Z,26.43
2018-04-15T22:37:44.893Z,27.67
2018-04-15T22:40:12.384Z,25.70
2018-04-15T22:42:39.920Z,25.30
2018-04-15T22:45:07.484Z,25.00
2018-04-15T22:47:34.981Z,25.27
2018-04-15T22:50:08.176Z,22.83
2018-04-15T22:52:35.688Z,23.93
2018-04-15T22:55:03.198Z,25.60
2018-04-15T22:57:31.548Z,21.13
2018-04-15T22:59:59.045Z,19.83
2018-04-15T23:02:27.309Z,20.50
2018-04-15T23:04:54.808Z,19.47
2018-04-15T23:07:22.306Z,19.27
2018-04-15T23:09:49.811Z,20.77
2018-04-15T23:12:18.075Z,18.50
2018-04-15T23:14:45.570Z,20.77
2018-04-15T23:17:13.079Z,26.37
2018-04-15T23:19:40.666Z,19.03
2018-04-15T23:22:08.222Z,18.97
2018-04-15T23:24:35.713Z,26.93
2018-04-15T23:27:03.981Z,14.97
2018-04-15T23:29:31.487Z,17.77
2018-04-15T23:31:58.992Z,19.03
2018-04-15T23:34:26.575Z,18.57
2018-04-15T23:36:54.086Z,16.07
2018-04-15T23:39:21.602Z,15.27
2018-04-15T23:41:49.111Z,22.47
2018-04-15T23:44:16.635Z,15.33
2018-04-15T23:46:44.194Z,15.70
2018-04-15T23:49:11.699Z,14.57
2018-04-15T23:51:39.188Z,15.93
2018-04-15T23:54:06.682Z,14.60
2018-04-15T23:56:34.249Z,15.57
2018-04-15T23:59:01.745Z,16.90
